Time;durP1;ratioP1;P1;durP2;ratioP2;P2;SDS_P1;SDS_P2;PMS_P1;PMS_P2;Temp;Humidity;BMP_temperature;BMP_pressure;BME280_temperature;BME280_humidity;BME280_pressure;Samples;Min_cycle;Max_cycle;Signal;HPM_P1;HPM_P2
2022/08/05 00:02:35;;;;;;;7.95;1.27;;;;;;;;;;21069090;28;20262;-75
2022/08/05 00:12:55;;;;;;;1.90;0.80;;;;;;;;;;21069099;28;20760;-76
2022/08/05 00:22:56;;;;;;;1.38;0.63;;;;;;;;;;21068948;28;20535;-76
2022/08/05 00:32:58;;;;;;;2.47;0.90;;;;;;;;;;21067531;28;20197;-75
2022/08/05 00:43:04;;;;;;;2.17;0.77;;;30.30;81.10;;;;;;21067328;28;20262;-75
2022/08/05 00:53:12;;;;;;;3.67;0.98;;;30.50;80.50;;;;;;21067752;28;20277;-75
2022/08/05 01:03:14;;;;;;;2.47;0.75;;;;;;;;;;21058980;22;20228;-70
2022/08/05 01:13:25;;;;;;;3.10;0.98;;;30.40;88.20;;;;;;21023668;28;20213;-70
2022/08/05 01:23:27;;;;;;;1.73;1.08;;;;;;;;;;21012456;28;20281;-70
2022/08/05 01:33:33;;;;;;;2.38;0.93;;;30.30;89.30;;;;;;21026670;28;20226;-70
2022/08/05 01:43:36;;;;;;;1.50;0.80;;;;;;;;;;21050881;28;20307;-70
2022/08/05 01:53:39;;;;;;;1.42;0.80;;;;;;;;;;21032948;28;20212;-70
2022/08/05 02:03:45;;;;;;;1.55;0.90;;;29.90;90.40;;;;;;21030586;28;20217;-70
2022/08/05 02:14:09;;;;;;;3.20;1.00;;;30.20;90.90;;;;;;21048073;28;20212;-71
2022/08/05 02:24:14;;;;;;;1.88;0.88;;;;;;;;;;21064329;28;20797;-70
2022/08/05 02:34:16;;;;;;;2.75;1.00;;;;;;;;;;21015123;28;20574;-70
2022/08/05 02:44:20;;;;;;;1.30;0.70;;;30.00;91.40;;;;;;21028165;28;20780;-70
2022/08/05 02:54:22;;;;;;;2.33;0.98;;;30.00;89.00;;;;;;21012219;28;20274;-70
2022/08/05 03:04:24;;;;;;;2.92;1.10;;;;;;;;;;21027445;28;20225;-70
2022/08/05 03:14:26;;;;;;;2.10;1.00;;;;;;;;;;21029819;28;20698;-70
2022/08/05 03:24:28;;;;;;;1.95;0.90;;;;;;;;;;21025865;28;20235;-70
2022/08/05 03:34:30;;;;;;;2.38;1.25;;;;;;;;;;21040095;28;20567;-76
2022/08/05 03:44:32;;;;;;;2.38;0.82;;;;;;;;;;21025708;28;20250;-69
2022/08/05 03:54:45;;;;;;;1.85;1.00;;;;;;;;;;21038753;28;20223;-69
2022/08/05 04:04:47;;;;;;;3.78;0.95;;;;;;;;;;21039054;28;20771;-69
2022/08/05 04:14:49;;;;;;;2.03;0.70;;;;;;;;;;21054982;28;20207;-68
2022/08/05 04:24:51;;;;;;;1.48;0.63;;;;;;;;;;21032341;28;20571;-73
2022/08/05 04:34:53;;;;;;;1.67;0.60;;;;;;;;;;21025332;28;20647;-74
2022/08/05 04:44:55;;;;;;;1.52;0.60;;;;;;;;;;20952944;28;20281;-71
2022/08/05 04:54:57;;;;;;;1.17;0.60;;;;;;;;;;20978455;28;20269;-74
2022/08/05 05:04:59;;;;;;;0.95;0.40;;;;;;;;;;21003174;28;20225;-74
2022/08/05 05:15:01;;;;;;;0.70;0.50;;;;;;;;;;21012729;28;20670;-71
2022/08/05 05:25:03;;;;;;;1.13;0.50;;;28.70;90.00;;;;;;20999540;28;20587;-70
2022/08/05 05:35:06;;;;;;;1.05;0.50;;;;;;;;;;21041205;28;20212;-71
2022/08/05 05:45:08;;;;;;;1.52;0.50;;;;;;;;;;21051074;28;20217;-72
2022/08/05 05:55:11;;;;;;;2.33;0.60;;;;;;;;;;21010506;28;20220;-72
2022/08/05 06:05:14;;;;;;;1.63;0.55;;;;;;;;;;21000913;28;20284;-72
2022/08/05 06:15:16;;;;;;;1.23;0.60;;;;;;;;;;21030871;28;20212;-70
2022/08/05 06:25:17;;;;;;;1.25;0.55;;;;;;;;;;21030847;28;20247;-70
2022/08/05 06:35:19;;;;;;;2.47;0.68;;;;;;;;;;21047523;28;20204;-71
2022/08/05 06:45:21;;;;;;;1.63;0.77;;;28.90;87.90;;;;;;21047186;28;20718;-71
2022/08/05 06:55:23;;;;;;;1.27;0.52;;;;;;;;;;21028338;28;20246;-70
2022/08/05 07:05:26;;;;;;;1.40;0.70;;;;;;;;;;21095221;22;20224;-76
2022/08/05 07:25:48;;;;;;;1.60;0.30;;;;;;;;;;21018416;28;20259;-76
2022/08/05 07:35:50;;;;;;;0.70;0.47;;;;;;;;;;21045625;28;20295;-76
2022/08/05 07:45:51;;;;;;;0.98;0.50;;;;;;;;;;21063613;28;20289;-76
2022/08/05 07:55:53;;;;;;;0.93;0.50;;;;;;;;;;21051965;28;20208;-75
2022/08/05 08:05:55;;;;;;;22.20;2.28;;;;;;;;;;21058612;28;20220;-75
2022/08/05 08:15:56;;;;;;;1.95;0.40;;;;;;;;;;21031313;28;20224;-75
2022/08/05 08:25:58;;;;;;;0.60;0.40;;;;;;;;;;21021514;28;20273;-75
2022/08/05 08:36:00;;;;;;;1.10;0.60;;;;;;;;;;21073810;28;20258;-75
2022/08/05 08:46:03;;;;;;;2.10;0.60;;;;;;;;;;21074916;28;20562;-77
2022/08/05 08:56:05;;;;;;;1.85;0.40;;;;;;;;;;20981712;28;20220;-77
2022/08/05 09:06:07;;;;;;;0.80;0.40;;;;;;;;;;20987602;28;20301;-76
2022/08/05 09:16:10;;;;;;;0.80;0.40;;;;;;;;;;20943360;28;20595;-76
2022/08/05 09:26:16;;;;;;;0.80;0.43;;;;;;;;;;20946986;28;20220;-76
2022/08/05 09:36:18;;;;;;;0.82;0.30;;;;;;;;;;20983718;28;20351;-77
2022/08/05 09:46:27;;;;;;;1.27;0.68;;;;;;;;;;21003719;28;20212;-75
2022/08/05 09:56:32;;;;;;;1.25;0.38;;;;;;;;;;21051453;28;20208;-75
2022/08/05 10:06:34;;;;;;;0.57;0.40;;;;;;;;;;21050789;28;20650;-76
2022/08/05 10:16:35;;;;;;;0.65;0.47;;;30.60;82.70;;;;;;21078400;28;20258;-77
2022/08/05 10:26:37;;;;;;;0.95;0.50;;;;;;;;;;21008805;28;20221;-75
2022/08/05 10:36:40;;;;;;;1.05;0.52;;;;;;;;;;20994017;28;20205;-76
2022/08/05 10:46:43;;;;;;;0.70;0.47;;;;;;;;;;20988629;28;20222;-77
2022/08/05 10:56:51;;;;;;;0.95;0.60;;;31.30;78.90;;;;;;20992870;28;20278;-76
2022/08/05 11:06:56;;;;;;;1.75;0.70;;;;;;;;;;20989663;28;20761;-70
2022/08/05 11:17:20;;;;;;;1.75;0.60;;;;;;;;;;20988596;28;20684;-70
2022/08/05 11:27:29;;;;;;;1.23;0.70;;;30.60;88.30;;;;;;20989807;28;20221;-70
2022/08/05 11:37:41;;;;;;;3.42;0.88;;;;;;;;;;20988733;28;20209;-71
2022/08/05 11:47:43;;;;;;;1.95;0.88;;;;;;;;;;20988444;28;20268;-72
2022/08/05 11:57:45;;;;;;;2.45;0.77;;;;;;;;;;20987857;28;20563;-74
2022/08/05 12:07:49;;;;;;;0.80;0.60;;;;;;;;;;21046080;28;20225;-75
2022/08/05 12:17:51;;;;;;;1.95;0.70;;;;;;;;;;21009264;28;20290;-76
2022/08/05 12:27:53;;;;;;;0.88;0.70;;;;;;;;;;20989054;28;20213;-75
2022/08/05 12:37:55;;;;;;;1.23;0.70;;;;;;;;;;20985065;28;20233;-75
2022/08/05 12:48:00;;;;;;;1.65;0.80;;;;;;;;;;20985011;28;20222;-76
2022/08/05 12:58:02;;;;;;;1.15;0.88;;;;;;;;;;21017467;28;20641;-76
2022/08/05 13:08:04;;;;;;;1.52;0.90;;;;;;;;;;20959962;22;20226;-71
2022/08/05 13:18:06;;;;;;;0.90;0.73;;;;;;;;;;20974580;28;20229;-72
2022/08/05 13:28:07;;;;;;;0.68;0.45;;;;;;;;;;20973635;28;20696;-73
2022/08/05 13:38:09;;;;;;;1.17;0.68;;;;;;;;;;20979378;28;20217;-73
2022/08/05 13:48:11;;;;;;;1.13;0.60;;;;;;;;;;20979396;28;20204;-73
2022/08/05 13:58:12;;;;;;;1.83;0.60;;;;;;;;;;20931491;28;20278;-72
2022/08/05 14:08:14;;;;;;;0.95;0.65;;;;;;;;;;20935261;28;20253;-73
2022/08/05 14:18:16;;;;;;;1.02;0.60;;;32.00;82.80;;;;;;20953704;28;20832;-72
2022/08/05 14:28:18;;;;;;;0.82;0.60;;;;;;;;;;20905511;28;20248;-72
2022/08/05 14:38:20;;;;;;;1.58;0.50;;;;;;;;;;20882996;28;20269;-72
2022/08/05 14:48:22;;;;;;;0.93;0.55;;;;;;;;;;20901475;28;20685;-73
2022/08/05 14:58:23;;;;;;;0.63;0.50;;;;;;;;;;20913804;28;20241;-73
2022/08/05 15:08:25;;;;;;;2.03;0.93;;;;;;;;;;20931819;28;20221;-73
2022/08/05 15:18:27;;;;;;;2.08;1.20;;;;;;;;;;20924433;28;20230;-71
2022/08/05 15:28:29;;;;;;;1.90;1.30;;;;;;;;;;20927574;28;20225;-72
2022/08/05 15:38:32;;;;;;;2.53;1.90;;;29.20;91.90;;;;;;20918111;28;20257;-71
2022/08/05 15:48:33;;;;;;;3.13;2.13;;;;;;;;;;20908056;28;20214;-71
2022/08/05 15:58:35;;;;;;;2.08;1.67;;;;;;;;;;20924981;28;20811;-69
2022/08/05 16:08:37;;;;;;;2.25;1.88;;;;;;;;;;20890664;28;20225;-68
2022/08/05 16:18:39;;;;;;;2.70;1.80;;;;;;;;;;20927441;28;20233;-67
2022/08/05 16:28:40;;;;;;;1.60;1.20;;;;;;;;;;20939187;28;20275;-68
2022/08/05 16:38:44;;;;;;;2.70;1.92;;;;;;;;;;20933965;28;20248;-70
2022/08/05 16:48:45;;;;;;;1.95;1.45;;;;;;;;;;20902481;28;20636;-71
2022/08/05 16:58:48;;;;;;;1.67;1.38;;;;;;;;;;20861590;28;20662;-69
2022/08/05 17:08:49;;;;;;;1.77;1.17;;;;;;;;;;20883174;28;20221;-70
2022/08/05 17:18:51;;;;;;;1.50;1.00;;;;;;;;;;20872948;28;20216;-73
2022/08/05 17:28:53;;;;;;;1.20;0.85;;;;;;;;;;20890063;28;20208;-73
2022/08/05 17:38:55;;;;;;;1.27;0.68;;;;;;;;;;20876521;28;20216;-73
2022/08/05 17:48:56;;;;;;;1.20;0.80;;;27.10;88.80;;;;;;20897886;28;20213;-73
2022/08/05 17:58:59;;;;;;;1.10;0.70;;;;;;;;;;20882131;28;20290;-72
2022/08/05 18:09:00;;;;;;;1.55;0.63;;;;;;;;;;20924433;28;20283;-74
2022/08/05 18:19:04;;;;;;;0.40;0.40;;;;;;;;;;20917918;28;20225;-69
2022/08/05 18:29:05;;;;;;;1.45;0.47;;;;;;;;;;20941173;28;20595;-69
2022/08/05 18:39:08;;;;;;;1.83;0.40;;;;;;;;;;20942886;28;20702;-70
2022/08/05 18:59:31;;;;;;;1.75;0.40;;;;;;;;;;20957988;28;20265;-68
2022/08/05 19:09:33;;;;;;;0.73;0.43;;;27.50;82.00;;;;;;20894302;28;20284;-69
2022/08/05 19:19:35;;;;;;;0.63;0.32;;;;;;;;;;20911186;28;20221;-69
2022/08/05 19:29:37;;;;;;;0.20;0.20;;;26.80;84.30;;;;;;20900018;28;20249;-69
2022/08/05 19:39:39;;;;;;;0.68;0.38;;;;;;;;;;20857954;28;20697;-69
2022/08/05 19:49:40;;;;;;;0.45;0.20;;;;;;;;;;20803197;28;20214;-69
2022/08/05 19:59:42;;;;;;;0.10;0.10;;;;;;;;;;20822136;28;20627;-69
2022/08/05 20:09:44;;;;;;;0.30;0.22;;;;;;;;;;20844920;22;20224;-69
2022/08/05 20:19:46;;;;;;;0.55;0.35;;;;;;;;;;21049143;28;20218;-70
2022/08/05 20:29:47;;;;;;;1.85;0.38;;;;;;;;;;21119257;28;20222;-71
2022/08/05 20:39:49;;;;;;;0.45;0.20;;;;;;;;;;21140276;28;20249;-70
2022/08/05 20:49:51;;;;;;;0.47;0.30;;;;;;;;;;21152387;28;20270;-70
2022/08/05 20:59:52;;;;;;;0.73;0.35;;;;;;;;;;21150790;28;20291;-70
2022/08/05 21:09:55;;;;;;;0.63;0.40;;;;;;;;;;21118171;28;20342;-71
2022/08/05 21:19:56;;;;;;;0.30;0.30;;;;;;;;;;21128007;28;20247;-70
2022/08/05 21:29:58;;;;;;;0.68;0.43;;;;;;;;;;21147935;28;20276;-71
2022/08/05 21:40:23;;;;;;;0.82;0.40;;;25.80;90.50;;;;;;21148775;28;20213;-70
2022/08/05 21:50:27;;;;;;;0.68;0.30;;;;;;;;;;21086099;28;20261;-70
2022/08/05 22:00:29;;;;;;;1.42;0.30;;;;;;;;;;21081243;28;20272;-70
2022/08/05 22:10:31;;;;;;;0.73;0.30;;;;;;;;;;21080842;28;20700;-72
2022/08/05 22:20:33;;;;;;;2.95;0.30;;;;;;;;;;21079683;28;20219;-71
2022/08/05 22:30:37;;;;;;;1.38;0.50;;;;;;;;;;21079253;28;20225;-70
2022/08/05 22:40:38;;;;;;;0.52;0.40;;;;;;;;;;21060937;28;20211;-72
2022/08/05 22:50:41;;;;;;;1.25;0.40;;;;;;;;;;21059278;28;20261;-71
2022/08/05 23:00:43;;;;;;;0.55;0.40;;;;;;;;;;21076420;28;20294;-72
2022/08/05 23:10:44;;;;;;;0.50;0.40;;;;;;;;;;21075791;28;20241;-72
2022/08/05 23:20:46;;;;;;;0.68;0.35;;;;;;;;;;21075069;28;20772;-71
2022/08/05 23:30:48;;;;;;;1.65;0.50;;;;;;;;;;21101560;28;20215;-71
2022/08/05 23:40:49;;;;;;;0.98;0.50;;;;;;;;;;21157656;28;20211;-71
2022/08/05 23:50:51;;;;;;;0.65;0.40;;;;;;;;;;21138225;28;20210;-72
